Time;durP1;ratioP1;P1;durP2;ratioP2;P2;SDS_P1;SDS_P2;PMS_P1;PMS_P2;Temp;Humidity;BMP_temperature;BMP_pressure;BME280_temperature;BME280_humidity;BME280_pressure;Samples;Min_cycle;Max_cycle;Signal;HPM_P1;HPM_P2
2023/01/04 00:01:36;;;;;;;;;;;;;;;7.90;97.62;101859.25;5085354;28;20279;-67
2023/01/04 00:04:02;;;;;;;;;;;;;;;7.85;99.53;101843.53;5065475;28;20351;-66
2023/01/04 00:06:27;;;;;;;;;;;;;;;7.83;99.44;101844.50;5073033;28;19916;-67
2023/01/04 00:08:53;;;;;;;;;;;;;;;7.83;100.00;101831.28;5070665;28;20011;-67
2023/01/04 00:11:20;;;;;;;;;;;;;;;7.81;100.00;101825.16;5072771;28;19912;-67
2023/01/04 00:13:46;;;;;;;;;;;;;;;7.88;99.75;101816.94;5071048;28;20050;-67
2023/01/04 00:16:13;;;;;;;;;;;;;;;7.80;100.00;101819.00;5072664;28;19912;-66
2023/01/04 00:18:39;;;;;;;;;;;;;;;7.84;100.00;101814.44;5070939;28;20465;-66
2023/01/04 00:21:16;;;;;;;;;;;;;;;7.94;100.00;101818.47;5072916;28;19947;-67
2023/01/04 00:23:42;;;;;;;;;;;;;;;7.83;100.00;101815.38;5069210;28;19915;-67
2023/01/04 00:26:15;;;;;;;;;;;;;;;7.87;100.00;101783.41;5062720;28;19912;-66
2023/01/04 00:28:40;;;;;;;;;;;;;;;7.80;100.00;101786.38;5071127;28;19919;-66
2023/01/04 00:31:07;;;;;;;;;;;;;;;7.79;100.00;101785.47;5072643;28;19912;-66
2023/01/04 00:33:32;;;;;;;;;;;;;;;7.79;100.00;101776.66;5063371;28;19945;-66
2023/01/04 00:36:02;;;;;;;;;;;;;;;7.76;100.00;101766.19;5067599;28;19916;-66
2023/01/04 00:38:28;;;;;;;;;;;;;;;7.83;100.00;101776.50;5052139;28;19916;-66
2023/01/04 00:40:53;;;;;;;;;;;;;;;7.94;100.00;101776.09;5052426;28;20291;-67
2023/01/04 00:43:19;;;;;;;;;;;;;;;7.93;100.00;101767.28;5050670;28;20379;-66
2023/01/04 00:45:44;;;;;;;;;;;;;;;7.92;100.00;101765.56;5051379;28;20356;-66
2023/01/04 00:48:10;;;;;;;;;;;;;;;7.84;100.00;101765.00;5034510;28;20360;-66
2023/01/04 00:50:35;;;;;;;;;;;;;;;7.89;100.00;101752.44;5051059;28;19919;-66
2023/01/04 00:53:00;;;;;;;;;;;;;;;7.89;100.00;101749.81;5052407;28;19952;-67
2023/01/04 00:55:26;;;;;;;;;;;;;;;7.88;100.00;101753.38;5067242;28;20413;-67
2023/01/04 00:57:53;;;;;;;;;;;;;;;7.99;100.00;101746.81;5084342;28;20338;-66
2023/01/04 01:00:19;;;;;;;;;;;;;;;7.97;100.00;101745.09;5052115;28;19917;-66
2023/01/04 01:02:44;;;;;;;;;;;;;;;7.94;100.00;101742.56;5050708;28;19909;-67
2023/01/04 01:05:11;;;;;;;;;;;;;;;7.97;100.00;101726.53;5084285;28;19913;-66
2023/01/04 01:07:37;;;;;;;;;;;;;;;7.97;100.00;101726.53;5058482;28;19928;-66
2023/01/04 01:10:04;;;;;;;;;;;;;;;8.03;100.00;101722.81;5050913;28;19916;-66
2023/01/04 01:12:29;;;;;;;;;;;;;;;8.05;100.00;101728.03;5051995;28;20294;-67
2023/01/04 01:14:55;;;;;;;;;;;;;;;8.07;100.00;101724.41;5101095;28;19940;-67
2023/01/04 01:17:20;;;;;;;;;;;;;;;8.08;100.00;101720.81;5052078;28;19924;-67
2023/01/04 01:19:46;;;;;;;;;;;;;;;8.13;100.00;101721.50;5083199;28;20015;-66
2023/01/04 01:22:12;;;;;;;;;;;;;;;8.20;100.00;101714.19;5049629;28;20391;-66
2023/01/04 01:24:37;;;;;;;;;;;;;;;8.08;100.00;101714.66;5051341;28;20398;-66
2023/01/04 01:27:02;;;;;;;;;;;;;;;8.07;100.00;101715.59;5034919;28;19962;-66
2023/01/04 01:29:30;;;;;;;;;;;;;;;8.10;100.00;101707.53;5066428;28;19917;-67
2023/01/04 01:31:58;;;;;;;;;;;;;;;8.12;100.00;101709.19;5077455;28;19916;-66
2023/01/04 01:34:25;;;;;;;;;;;;;;;8.07;100.00;101705.84;5069772;28;19985;-66
2023/01/04 01:36:51;;;;;;;;;;;;;;;8.03;100.00;101700.72;5081633;28;20048;-66
2023/01/04 01:39:16;;;;;;;;;;;;;;;8.04;100.00;101699.81;5051038;28;19919;-66
2023/01/04 01:41:41;;;;;;;;;;;;;;;8.09;100.00;101700.47;5051658;28;19956;-65
2023/01/04 01:44:25;;;;;;;;;;;;;;;8.02;100.00;101705.16;5066835;28;20003;-66
2023/01/04 01:46:52;;;;;;;;;;;;;;;8.11;100.00;101690.69;5052792;28;19912;-66
2023/01/04 01:49:20;;;;;;;;;;;;;;;8.15;100.00;101695.81;5051701;28;19909;-66
2023/01/04 01:51:48;;;;;;;;;;;;;;;8.14;100.00;101696.72;5051703;28;19914;-66
2023/01/04 01:54:16;;;;;;;;;;;;;;;8.13;100.00;101696.81;5049937;28;19936;-67
2023/01/04 01:56:43;;;;;;;;;;;;;;;8.15;100.00;101695.81;5054894;28;20337;-66
2023/01/04 01:59:10;;;;;;;;;;;;;;;8.39;100.00;101698.47;5070854;28;19913;-66
2023/01/04 02:01:35;;;;;;;;;;;;;;;8.14;100.00;101691.44;5070771;28;20409;-66
2023/01/04 02:04:01;;;;;;;;;;;;;;;8.25;100.00;101684.84;5073068;28;19947;-65
2023/01/04 02:06:31;;;;;;;;;;;;;;;8.13;100.00;101692.38;5075005;28;19948;-65
2023/01/04 02:08:57;;;;;;;;;;;;;;;8.16;100.00;101686.94;5072830;28;19930;-65
2023/01/04 02:11:23;;;;;;;;;;;;;;;8.18;100.00;101692.19;5075203;28;20378;-65
2023/01/04 02:16:39;;;;;;;;;;;;;;;8.29;100.00;101692.59;5075216;28;20008;-66
2023/01/04 02:19:24;;;;;;;;;;;;;;;8.25;100.00;101708.72;5072034;28;19957;-65
2023/01/04 02:21:55;;;;;;;;;;;;;;;8.24;100.00;101691.09;5063985;28;19916;-65
2023/01/04 02:24:21;;;;;;;;;;;;;;;8.23;100.00;101697.28;5074589;28;19908;-65
2023/01/04 02:27:07;;;;;;;;;;;;;;;8.25;100.00;101682.22;5075028;28;19939;-65
2023/01/04 02:29:51;;;;;;;;;;;;;;;8.30;100.00;101685.53;5055438;28;19996;-65
2023/01/04 02:32:30;;;;;;;;;;;;;;;8.40;100.00;101679.81;5054995;28;19909;-66
2023/01/04 02:34:56;;;;;;;;;;;;;;;8.40;100.00;101685.13;5041088;28;19909;-66
2023/01/04 02:37:24;;;;;;;;;;;;;;;8.37;100.00;101673.75;5054905;28;20011;-66
2023/01/04 02:39:55;;;;;;;;;;;;;;;8.39;100.00;101648.94;5055176;28;19920;-66
2023/01/04 02:44:51;;;;;;;;;;;;;;;8.50;100.00;101652.94;5053452;28;19997;-66
2023/01/04 02:45:12;;;;;;;;;;;;;;;8.57;100.00;101649.13;5054539;28;19909;-66
2023/01/04 02:50:30;;;;;;;;;;;;;;;8.54;100.00;101639.50;5087890;28;19919;-66
2023/01/04 02:53:13;;;;;;;;;;;;;;;8.53;100.00;101643.09;5056129;28;20318;-66
2023/01/04 02:55:39;;;;;;;;;;;;;;;8.53;100.00;101627.19;5063352;28;20128;-66
2023/01/04 02:58:13;;;;;;;;;;;;;;;8.72;100.00;101634.34;5054387;28;20351;-66
2023/01/04 03:06:14;;;;;;;;;;;;;;;8.62;100.00;101634.75;5054224;28;19990;-66
2023/01/04 03:06:20;;;;;;;;;;;;;;;8.60;100.00;101607.41;5062066;28;19919;-65
2023/01/04 03:08:45;;;;;;;;;;;;;;;8.60;100.00;101617.16;5066988;28;20272;-66
2023/01/04 03:14:02;;;;;;;;;;;;;;;8.70;100.00;101621.13;5064902;28;19988;-65
2023/01/04 03:16:28;;;;;;;;;;;;;;;8.59;100.00;101604.84;5051395;28;20399;-66
2023/01/04 03:18:56;;;;;;;;;;;;;;;8.62;100.00;101618.84;5053635;28;19931;-66
2023/01/04 03:21:23;;;;;;;;;;;;;;;8.59;100.00;101605.72;5054019;28;19999;-65
2023/01/04 03:35:23;;;;;;;;;;;;;;;8.76;100.00;101594.34;5034014;28;20355;-66
2023/01/04 03:49:48;;;;;;;;;;;;;;;8.87;100.00;101583.28;5073556;28;19916;-66
2023/01/04 03:52:15;;;;;;;;;;;;;;;9.21;100.00;101558.75;5069739;28;19999;-66
2023/01/04 03:54:43;;;;;;;;;;;;;;;9.18;100.00;101558.03;5061167;28;19912;-66
2023/01/04 03:57:10;;;;;;;;;;;;;;;8.98;100.00;101551.84;5064452;28;20292;-66
2023/01/04 03:59:41;;;;;;;;;;;;;;;8.92;100.00;101552.13;5071529;28;20318;-66
2023/01/04 04:02:12;;;;;;;;;;;;;;;8.94;100.00;101546.72;5072888;28;19912;-66
2023/01/04 04:10:08;;;;;;;;;;;;;;;9.12;100.00;101558.28;5063985;28;20409;-65
2023/01/04 04:12:33;;;;;;;;;;;;;;;9.09;100.00;101543.41;5102974;28;19916;-66
2023/01/04 04:14:59;;;;;;;;;;;;;;;9.11;100.00;101544.16;5103957;28;19936;-66
2023/01/04 04:17:24;;;;;;;;;;;;;;;9.04;100.00;101535.63;5085938;28;19924;-65
2023/01/04 04:19:50;;;;;;;;;;;;;;;9.04;100.00;101530.31;5069153;28;19912;-66
2023/01/04 04:22:15;;;;;;;;;;;;;;;9.01;100.00;101524.31;5072804;28;19991;-65
2023/01/04 04:24:40;;;;;;;;;;;;;;;9.10;100.00;101530.03;5069309;28;20338;-66
2023/01/04 04:27:06;;;;;;;;;;;;;;;9.12;100.00;101526.44;5091067;28;20003;-66
2023/01/04 04:29:31;;;;;;;;;;;;;;;9.11;100.00;101544.16;5066719;28;19999;-66
2023/01/04 04:31:57;;;;;;;;;;;;;;;9.35;100.00;101543.97;5088048;28;19999;-66
2023/01/04 04:34:23;;;;;;;;;;;;;;;9.24;100.00;101528.56;5068834;28;19912;-66
2023/01/04 04:36:49;;;;;;;;;;;;;;;9.12;100.00;101518.50;5068553;28;19917;-66
2023/01/04 04:39:14;;;;;;;;;;;;;;;9.14;100.00;101503.38;5059483;28;19913;-66
2023/01/04 04:41:40;;;;;;;;;;;;;;;9.19;100.00;101512.84;5052323;28;20467;-65
2023/01/04 04:44:07;;;;;;;;;;;;;;;9.32;100.00;101507.81;5063290;28;19978;-67
2023/01/04 04:46:32;;;;;;;;;;;;;;;9.52;100.00;101490.94;5067791;28;20002;-66
2023/01/04 04:48:57;;;;;;;;;;;;;;;9.43;100.00;101486.91;5097924;28;19977;-66
2023/01/04 04:51:22;;;;;;;;;;;;;;;9.37;100.00;101494.31;5072362;28;19938;-66
2023/01/04 04:53:48;;;;;;;;;;;;;;;9.36;100.00;101506.75;5091542;28;19916;-65
2023/01/04 04:56:14;;;;;;;;;;;;;;;9.54;100.00;101483.75;5084255;28;19932;-67
2023/01/04 04:58:40;;;;;;;;;;;;;;;9.37;100.00;101489.88;5066189;28;19962;-67
2023/01/04 05:01:05;;;;;;;;;;;;;;;9.48;100.00;101490.22;5070604;28;19959;-66
2023/01/04 05:03:31;;;;;;;;;;;;;;;9.42;100.00;101482.56;5068744;28;19912;-66
2023/01/04 05:05:56;;;;;;;;;;;;;;;9.39;100.00;101492.47;5063098;28;20286;-67
2023/01/04 05:08:21;;;;;;;;;;;;;;;9.52;100.00;101491.78;5071136;28;19922;-66
2023/01/04 05:10:46;;;;;;;;;;;;;;;9.57;100.00;101480.09;5070747;28;19912;-66
2023/01/04 05:13:12;;;;;;;;;;;;;;;9.44;100.00;101488.66;5055346;28;19971;-66
2023/01/04 05:15:48;;;;;;;;;;;;;;;9.47;100.00;101482.31;5051668;28;19957;-66
2023/01/04 05:18:14;;;;;;;;;;;;;;;9.49;100.00;101472.50;5050899;28;19909;-66
2023/01/04 05:20:40;;;;;;;;;;;;;;;9.57;100.00;101477.44;5052367;28;20279;-67
2023/01/04 05:23:06;;;;;;;;;;;;;;;9.71;100.00;101474.97;5052134;28;20246;-67
2023/01/04 05:25:32;;;;;;;;;;;;;;;9.62;100.00;101457.69;5058847;28;19912;-66
2023/01/04 05:27:57;;;;;;;;;;;;;;;9.74;100.00;101477.47;5072026;28;20002;-66
2023/01/04 05:33:06;;;;;;;;;;;;;;;9.69;100.00;101461.75;5066898;28;19920;-66
2023/01/04 05:35:32;;;;;;;;;;;;;;;9.62;100.00;101462.13;5052525;28;19912;-66
2023/01/04 05:37:57;;;;;;;;;;;;;;;9.76;100.00;101473.81;5050632;28;19913;-66
2023/01/04 05:40:23;;;;;;;;;;;;;;;9.97;100.00;101450.63;5055478;28;20428;-66
2023/01/04 05:42:48;;;;;;;;;;;;;;;9.81;100.00;101451.47;5055897;28;19921;-66
2023/01/04 05:45:14;;;;;;;;;;;;;;;9.81;100.00;101435.53;5073269;28;19959;-66
2023/01/04 05:47:40;;;;;;;;;;;;;;;9.74;100.00;101445.59;5055850;28;20328;-66
2023/01/04 05:50:05;;;;;;;;;;;;;;;9.86;100.00;101452.09;5054346;28;19940;-67
2023/01/04 05:52:30;;;;;;;;;;;;;;;10.05;100.00;101452.00;5055641;28;19958;-66
2023/01/04 05:54:56;;;;;;;;;;;;;;;10.08;100.00;101447.38;5063853;28;20278;-65
2023/01/04 05:57:21;;;;;;;;;;;;;;;9.82;100.00;101445.19;5074930;28;20271;-66
2023/01/04 05:59:47;;;;;;;;;;;;;;;9.75;100.00;101437.53;5074385;28;19909;-66
2023/01/04 06:02:22;;;;;;;;;;;;;;;9.83;100.00;101423.88;5064417;28;19913;-66
2023/01/04 06:04:48;;;;;;;;;;;;;;;9.97;100.00;101426.69;5055455;28;19948;-66
2023/01/04 06:07:13;;;;;;;;;;;;;;;9.89;100.00;101436.00;5062678;28;19950;-65
2023/01/04 06:09:39;;;;;;;;;;;;;;;9.94;100.00;101423.31;5073610;28;19912;-65
2023/01/04 06:12:04;;;;;;;;;;;;;;;9.86;100.00;101442.31;5073922;28;19915;-66
2023/01/04 06:14:33;;;;;;;;;;;;;;;10.02;100.00;101431.75;5066688;28;19912;-66
2023/01/04 06:16:59;;;;;;;;;;;;;;;9.90;100.00;101432.41;5086770;28;19999;-66
2023/01/04 06:19:24;;;;;;;;;;;;;;;9.99;100.00;101440.75;5053864;28;20429;-66
2023/01/04 06:21:49;;;;;;;;;;;;;;;9.95;100.00;101433.88;5071967;28;19917;-66
2023/01/04 06:24:15;;;;;;;;;;;;;;;9.92;100.00;101444.66;5070771;28;20382;-66
2023/01/04 06:26:40;;;;;;;;;;;;;;;10.18;100.00;101453.97;5051655;28;19923;-66
2023/01/04 06:29:08;;;;;;;;;;;;;;;10.05;100.00;101436.91;5054744;28;19927;-66
2023/01/04 06:31:35;;;;;;;;;;;;;;;9.96;100.00;101418.78;5055135;28;19918;-67
2023/01/04 06:34:01;;;;;;;;;;;;;;;10.13;100.00;101394.00;5071593;28;19963;-67
2023/01/04 06:36:26;;;;;;;;;;;;;;;10.10;100.00;101404.81;5054840;28;19921;-66
2023/01/04 06:38:51;;;;;;;;;;;;;;;9.92;100.00;101410.13;5054222;28;20011;-67
2023/01/04 06:41:17;;;;;;;;;;;;;;;10.02;100.00;101415.81;5086771;28;19913;-67
2023/01/04 06:43:42;;;;;;;;;;;;;;;9.89;100.00;101428.03;5054239;28;20371;-65
2023/01/04 06:46:07;;;;;;;;;;;;;;;9.87;100.00;101413.94;5055892;28;19916;-67
2023/01/04 06:48:32;;;;;;;;;;;;;;;9.88;100.00;101428.94;5054071;28;19919;-66
2023/01/04 06:50:58;;;;;;;;;;;;;;;10.15;100.00;101432.88;5073220;28;19919;-66
2023/01/04 06:53:23;;;;;;;;;;;;;;;9.95;100.00;101428.56;5059391;28;19913;-66
2023/01/04 06:55:49;;;;;;;;;;;;;;;10.07;100.00;101436.84;5073772;28;19991;-66
2023/01/04 06:58:14;;;;;;;;;;;;;;;10.22;100.00;101449.34;5073233;28;19923;-67
2023/01/04 07:00:42;;;;;;;;;;;;;;;10.21;100.00;101434.34;5073237;28;20032;-66
2023/01/04 07:03:08;;;;;;;;;;;;;;;10.15;100.00;101419.56;5072938;28;19939;-67
2023/01/04 07:05:33;;;;;;;;;;;;;;;10.14;100.00;101404.53;5072944;28;20356;-66
2023/01/04 07:08:00;;;;;;;;;;;;;;;10.16;100.00;101415.09;5059684;28;19916;-67
2023/01/04 07:10:25;;;;;;;;;;;;;;;10.30;100.00;101428.56;5052351;28;19909;-67
2023/01/04 07:12:50;;;;;;;;;;;;;;;10.15;100.00;101408.09;5059799;28;19931;-66
2023/01/04 07:15:16;;;;;;;;;;;;;;;10.35;100.00;101397.28;5079432;28;19927;-66
2023/01/04 07:17:42;;;;;;;;;;;;;;;10.36;100.00;101395.50;5054305;28;19912;-66
2023/01/04 07:20:07;;;;;;;;;;;;;;;10.51;100.00;101386.69;5086472;28;20388;-66
2023/01/04 07:22:33;;;;;;;;;;;;;;;10.43;100.00;101394.19;5086331;28;19920;-66
2023/01/04 07:24:58;;;;;;;;;;;;;;;10.60;100.00;101406.59;5054556;28;19962;-66
2023/01/04 07:27:24;;;;;;;;;;;;;;;10.48;100.00;101389.50;5085884;28;19918;-66
2023/01/04 07:29:49;;;;;;;;;;;;;;;10.49;100.00;101377.91;5052271;28;19982;-66
2023/01/04 07:32:14;;;;;;;;;;;;;;;10.49;100.00;101372.59;5089141;28;19923;-66
2023/01/04 07:34:42;;;;;;;;;;;;;;;10.44;100.00;101383.50;5055088;28;20329;-66
2023/01/04 07:37:08;;;;;;;;;;;;;;;10.55;100.00;101385.56;5085865;28;19962;-66
2023/01/04 07:39:33;;;;;;;;;;;;;;;10.60;100.00;101378.19;5051575;28;19912;-66
2023/01/04 07:41:58;;;;;;;;;;;;;;;10.68;100.00;101372.47;5053637;28;20433;-66
2023/01/04 07:44:26;;;;;;;;;;;;;;;10.61;100.00;101377.25;5054330;28;19919;-67
2023/01/04 07:46:51;;;;;;;;;;;;;;;10.68;100.00;101377.78;5053324;28;20005;-67
2023/01/04 07:49:17;;;;;;;;;;;;;;;10.57;100.00;101381.03;5052374;28;19983;-67
2023/01/04 07:51:45;;;;;;;;;;;;;;;10.77;100.00;101355.13;5050146;28;20506;-67
2023/01/04 07:54:14;;;;;;;;;;;;;;;10.87;100.00;101382.94;5050172;28;19959;-66
2023/01/04 07:56:41;;;;;;;;;;;;;;;10.74;100.00;101364.16;5053411;28;20004;-65
2023/01/04 07:59:09;;;;;;;;;;;;;;;10.69;100.00;101377.69;5063283;28;19913;-67
2023/01/04 08:01:36;;;;;;;;;;;;;;;10.69;100.00;101337.78;5043379;28;20314;-67
2023/01/04 08:04:04;;;;;;;;;;;;;;;10.74;100.00;101361.47;5060919;28;19913;-66
2023/01/04 08:06:30;;;;;;;;;;;;;;;10.84;100.00;101356.50;5053205;28;19912;-67
2023/01/04 08:08:56;;;;;;;;;;;;;;;10.77;100.00;101356.00;5057995;28;19935;-66
2023/01/04 08:11:23;;;;;;;;;;;;;;;10.84;100.00;101351.19;5064375;28;19912;-67
2023/01/04 08:13:48;;;;;;;;;;;;;;;10.98;100.00;101377.88;5057567;28;19920;-67
2023/01/04 08:16:20;;;;;;;;;;;;;;;10.81;100.00;101391.25;5061053;28;20360;-67
2023/01/04 08:18:46;;;;;;;;;;;;;;;10.97;100.00;101369.97;5052880;28;20288;-67
2023/01/04 08:21:11;;;;;;;;;;;;;;;10.99;100.00;101368.94;5046780;28;19920;-67
2023/01/04 08:23:37;;;;;;;;;;;;;;;10.88;100.00;101358.91;5052492;28;19960;-67
2023/01/04 08:26:03;;;;;;;;;;;;;;;11.02;100.00;101378.56;5050606;28;19919;-66
2023/01/04 08:28:29;;;;;;;;;;;;;;;10.91;100.00;101372.06;5052528;28;19913;-67
2023/01/04 08:30:54;;;;;;;;;;;;;;;10.88;100.00;101387.31;5051416;28;19954;-67
2023/01/04 08:33:19;;;;;;;;;;;;;;;10.89;100.00;101397.03;5055000;28;20015;-67
2023/01/04 08:35:44;;;;;;;;;;;;;;;11.10;100.00;101379.00;5096282;28;19916;-67
2023/01/04 08:38:12;;;;;;;;;;;;;;;11.08;100.00;101400.34;5070666;28;19953;-67
2023/01/04 08:40:37;;;;;;;;;;;;;;;11.02;100.00;101384.72;5105020;28;19922;-67
2023/01/04 08:43:03;;;;;;;;;;;;;;;10.95;100.00;101399.34;5055047;28;19996;-67
2023/01/04 08:45:28;;;;;;;;;;;;;;;11.12;100.00;101393.94;5066146;28;19916;-67
2023/01/04 08:47:53;;;;;;;;;;;;;;;11.02;100.00;101390.06;5104633;28;20078;-67
2023/01/04 08:50:19;;;;;;;;;;;;;;;11.04;100.00;101400.63;5068968;28;19961;-66
2023/01/04 08:52:44;;;;;;;;;;;;;;;11.06;100.00;101396.94;5061685;28;19958;-67
2023/01/04 08:55:10;;;;;;;;;;;;;;;11.04;100.00;101390.84;5056548;28;19912;-67
2023/01/04 08:57:35;;;;;;;;;;;;;;;11.10;100.00;101394.97;5066990;28;20258;-67
2023/01/04 09:00:01;;;;;;;;;;;;;;;11.16;100.00;101393.75;5071924;28;19915;-67
2023/01/04 09:02:27;;;;;;;;;;;;;;;11.23;100.00;101397.78;5085209;28;19958;-67
2023/01/04 09:04:58;;;;;;;;;;;;;;;11.20;100.00;101398.81;5054437;28;19962;-67
2023/01/04 09:07:23;;;;;;;;;;;;;;;11.14;100.00;101384.03;5051891;28;19931;-66
2023/01/04 09:09:49;;;;;;;;;;;;;;;11.31;100.00;101387.56;5051195;28;19912;-67
2023/01/04 09:12:14;;;;;;;;;;;;;;;11.17;100.00;101391.00;5050942;28;19920;-67
2023/01/04 09:14:40;;;;;;;;;;;;;;;11.52;100.00;101388.97;5052126;28;19916;-67
2023/01/04 09:17:07;;;;;;;;;;;;;;;11.26;100.00;101394.94;5049938;28;19920;-66
2023/01/04 09:19:33;;;;;;;;;;;;;;;11.26;100.00;101373.63;5053201;28;19991;-67
2023/01/04 09:21:59;;;;;;;;;;;;;;;11.23;100.00;101390.63;5070107;28;20355;-67
2023/01/04 09:24:25;;;;;;;;;;;;;;;11.37;100.00;101387.19;5067236;28;19920;-67
2023/01/04 09:26:50;;;;;;;;;;;;;;;11.36;100.00;101388.16;5066318;28;20299;-67
2023/01/04 09:29:15;;;;;;;;;;;;;;;11.20;100.00;101388.16;5089130;28;20011;-67
2023/01/04 09:31:41;;;;;;;;;;;;;;;11.10;100.00;101385.16;5051919;28;19908;-67
2023/01/04 09:34:06;;;;;;;;;;;;;;;11.13;100.00;101392.13;5051378;28;20026;-67
2023/01/04 09:36:32;;;;;;;;;;;;;;;11.29;100.00;101384.09;5067377;28;20426;-67
2023/01/04 09:38:57;;;;;;;;;;;;;;;11.28;100.00;101398.38;5065851;28;20044;-67
2023/01/04 09:41:25;;;;;;;;;;;;;;;11.35;100.00;101405.94;5069984;28;19908;-67
2023/01/04 09:43:50;;;;;;;;;;;;;;;11.10;100.00;101400.28;5054187;28;19924;-68
2023/01/04 09:46:34;;;;;;;;;;;;;;;11.30;100.00;101391.16;5051111;28;19913;-67
2023/01/04 09:49:03;;;;;;;;;;;;;;;11.03;100.00;101396.22;5042841;28;19966;-67
2023/01/04 09:51:31;;;;;;;;;;;;;;;11.05;100.00;101391.69;5066387;28;19913;-67
2023/01/04 09:54:00;;;;;;;;;;;;;;;11.01;100.00;101387.50;5051213;28;20264;-67
2023/01/04 09:56:28;;;;;;;;;;;;;;;11.10;100.00;101393.16;5080291;28;20399;-67
2023/01/04 09:58:53;;;;;;;;;;;;;;;11.00;100.00;101388.41;5050758;28;19963;-67
2023/01/04 10:01:24;;;;;;;;;;;;;;;10.99;100.00;101379.59;5051021;28;19912;-67
2023/01/04 10:03:59;;;;;;;;;;;;;;;11.17;100.00;101387.47;5062535;28;20380;-67
2023/01/04 10:06:24;;;;;;;;;;;;;;;11.06;100.00;101367.66;5054073;28;19923;-67
2023/01/04 10:08:50;;;;;;;;;;;;;;;11.10;100.00;101374.53;5061222;28;19912;-67
2023/01/04 10:11:32;;;;;;;;;;;;;;;11.03;100.00;101388.25;5051758;28;19958;-67
2023/01/04 10:13:57;;;;;;;;;;;;;;;11.34;100.00;101382.91;5082130;28;20042;-67
2023/01/04 10:16:22;;;;;;;;;;;;;;;10.99;100.00;101371.59;5057954;28;20053;-67
2023/01/04 10:19:06;;;;;;;;;;;;;;;10.99;100.00;101368.94;5054442;28;19909;-67
2023/01/04 10:21:50;;;;;;;;;;;;;;;10.96;100.00;101369.13;5052342;28;20017;-67
2023/01/04 10:24:27;;;;;;;;;;;;;;;11.08;100.00;101372.88;5062497;28;19916;-67
2023/01/04 10:26:58;;;;;;;;;;;;;;;11.02;100.00;101378.56;5058857;28;20402;-67
2023/01/04 10:29:35;;;;;;;;;;;;;;;11.11;100.00;101373.56;5052823;28;19912;-67
2023/01/04 10:32:00;;;;;;;;;;;;;;;11.08;100.00;101362.22;5055040;28;19959;-67
2023/01/04 10:34:28;;;;;;;;;;;;;;;11.00;100.00;101383.09;5053618;28;19913;-67
2023/01/04 10:36:58;;;;;;;;;;;;;;;10.97;100.00;101377.94;5052601;28;20249;-67
2023/01/04 10:39:25;;;;;;;;;;;;;;;10.94;100.00;101362.16;5052742;28;20375;-67
2023/01/04 10:41:58;;;;;;;;;;;;;;;11.10;100.00;101355.03;5053956;28;19912;-67
2023/01/04 10:44:43;;;;;;;;;;;;;;;10.95;100.00;101358.56;5054523;28;19966;-67
2023/01/04 10:47:21;;;;;;;;;;;;;;;11.16;100.00;101352.00;5063650;28;19912;-67
2023/01/04 10:49:52;;;;;;;;;;;;;;;11.00;100.00;101356.47;5053282;28;19909;-67
2023/01/04 10:52:28;;;;;;;;;;;;;;;11.01;100.00;101348.44;5062533;28;20006;-67
2023/01/04 10:54:57;;;;;;;;;;;;;;;11.06;100.00;101337.50;5053312;28;19908;-67
2023/01/04 10:57:27;;;;;;;;;;;;;;;10.98;100.00;101347.75;5053752;28;19920;-67
2023/01/04 11:00:01;;;;;;;;;;;;;;;11.06;100.00;101351.69;5052180;28;19909;-67
2023/01/04 11:02:35;;;;;;;;;;;;;;;10.99;100.00;101352.97;5085129;28;19920;-67
2023/01/04 11:05:12;;;;;;;;;;;;;;;11.24;100.00;101352.44;5054074;28;20368;-67
2023/01/04 11:07:55;;;;;;;;;;;;;;;11.19;100.00;101364.28;5053220;28;19921;-67
2023/01/04 11:10:26;;;;;;;;;;;;;;;11.24;100.00;101344.44;5047392;28;19920;-67
2023/01/04 11:12:51;;;;;;;;;;;;;;;11.06;100.00;101349.03;5072001;28;19913;-66
2023/01/04 11:15:17;;;;;;;;;;;;;;;11.23;100.00;101363.16;5072808;28;20038;-67
2023/01/04 11:17:42;;;;;;;;;;;;;;;11.01;100.00;101360.88;5062792;28;20265;-67
2023/01/04 11:20:08;;;;;;;;;;;;;;;10.97;100.00;101349.56;5049881;28;20402;-67
2023/01/04 11:22:33;;;;;;;;;;;;;;;11.12;100.00;101363.78;5093735;28;19923;-67
2023/01/04 11:25:01;;;;;;;;;;;;;;;10.98;100.00;101366.38;5045073;28;20015;-67
2023/01/04 11:27:28;;;;;;;;;;;;;;;11.04;100.00;101350.06;5066804;28;20294;-67
2023/01/04 11:30:00;;;;;;;;;;;;;;;11.09;100.00;101362.16;5053378;28;19913;-67
2023/01/04 11:32:49;;;;;;;;;;;;;;;11.02;100.00;101358.13;5054971;28;19908;-66
2023/01/04 11:35:14;;;;;;;;;;;;;;;11.04;100.00;101350.91;5023630;28;19916;-67
2023/01/04 11:37:40;;;;;;;;;;;;;;;11.18;100.00;101362.56;5058071;28;20118;-67
2023/01/04 11:40:18;;;;;;;;;;;;;;;11.11;100.00;101351.41;5068234;28;20283;-67
2023/01/04 11:42:43;;;;;;;;;;;;;;;11.18;100.00;101357.22;5085079;28;19970;-67
2023/01/04 11:45:35;;;;;;;;;;;;;;;11.00;100.00;101360.03;5053151;28;19921;-67
2023/01/04 11:48:05;;;;;;;;;;;;;;;11.00;100.00;101357.38;5050413;28;19912;-67
2023/01/04 11:50:46;;;;;;;;;;;;;;;11.15;100.00;101350.31;5058149;28;20299;-67
2023/01/04 11:53:29;;;;;;;;;;;;;;;11.19;100.00;101346.50;5084599;28;19908;-67
2023/01/04 11:56:15;;;;;;;;;;;;;;;11.02;100.00;101374.09;5063871;28;19912;-67
2023/01/04 11:58:42;;;;;;;;;;;;;;;11.00;100.00;101361.81;5072976;28;19918;-67
2023/01/04 12:01:21;;;;;;;;;;;;;;;11.08;100.00;101364.91;5072849;28;20360;-67
2023/01/04 12:03:46;;;;;;;;;;;;;;;11.11;100.00;101365.56;5073121;28;20295;-67
2023/01/04 12:06:14;;;;;;;;;;;;;;;11.06;100.00;101361.44;5049047;28;19913;-67
2023/01/04 12:08:40;;;;;;;;;;;;;;;11.15;100.00;101368.94;5083966;28;20095;-67
2023/01/04 12:11:16;;;;;;;;;;;;;;;11.03;100.00;101354.53;5056265;28;19908;-67
2023/01/04 12:13:41;;;;;;;;;;;;;;;11.05;100.00;101359.75;5051327;28;19908;-67
2023/01/04 12:16:09;;;;;;;;;;;;;;;11.20;100.00;101366.84;5053182;28;20387;-67
2023/01/04 12:18:38;;;;;;;;;;;;;;;11.10;100.00;101365.69;5062260;28;19920;-67
2023/01/04 12:21:03;;;;;;;;;;;;;;;11.13;100.00;101365.50;5052657;28;20435;-67
2023/01/04 12:23:29;;;;;;;;;;;;;;;11.21;100.00;101370.41;5063521;28;20007;-67
2023/01/04 12:25:54;;;;;;;;;;;;;;;11.09;100.00;101363.97;5046996;28;20375;-66
2023/01/04 12:28:34;;;;;;;;;;;;;;;11.06;100.00;101370.31;5051296;28;19959;-67
2023/01/04 12:31:18;;;;;;;;;;;;;;;11.16;100.00;101364.47;5062204;28;19919;-67
2023/01/04 12:33:50;;;;;;;;;;;;;;;11.09;100.00;101356.84;5053352;28;20280;-67
2023/01/04 12:36:35;;;;;;;;;;;;;;;11.17;100.00;101344.88;5054078;28;19923;-67
2023/01/04 12:39:01;;;;;;;;;;;;;;;11.06;100.00;101340.16;5051303;28;19948;-67
2023/01/04 12:41:33;;;;;;;;;;;;;;;11.11;100.00;101336.28;5084086;28;19979;-67
2023/01/04 12:43:58;;;;;;;;;;;;;;;11.21;100.00;101346.44;5051706;28;19923;-67
2023/01/04 12:49:32;;;;;;;;;;;;;;;11.17;100.00;101348.41;5051525;28;19927;-67
2023/01/04 12:52:07;;;;;;;;;;;;;;;11.18;100.00;101354.56;5072232;28;19915;-67
2023/01/04 12:54:46;;;;;;;;;;;;;;;11.14;100.00;101344.09;5070725;28;19908;-67
2023/01/04 12:57:14;;;;;;;;;;;;;;;11.14;100.00;101341.44;5069476;28;19916;-67
2023/01/04 13:00:00;;;;;;;;;;;;;;;11.13;100.00;101339.72;5064399;28;19916;-67
2023/01/04 13:02:33;;;;;;;;;;;;;;;11.08;100.00;101339.13;5064398;28;19912;-67
2023/01/04 13:04:58;;;;;;;;;;;;;;;11.10;100.00;101341.72;5054362;28;20268;-67
2023/01/04 13:07:31;;;;;;;;;;;;;;;11.22;100.00;101341.00;5053740;28;19950;-67
2023/01/04 13:10:01;;;;;;;;;;;;;;;11.29;100.00;101344.16;5068733;28;19912;-67
2023/01/04 13:12:29;;;;;;;;;;;;;;;11.12;100.00;101334.50;5094527;28;20008;-67
2023/01/04 13:14:58;;;;;;;;;;;;;;;11.37;100.00;101329.44;5057134;28;19920;-67
2023/01/04 13:17:25;;;;;;;;;;;;;;;11.18;100.00;101334.16;5070729;28;20276;-66
2023/01/04 13:19:51;;;;;;;;;;;;;;;11.24;100.00;101340.94;5071706;28;19915;-67
2023/01/04 13:22:18;;;;;;;;;;;;;;;11.31;100.00;101340.47;5072026;28;19908;-67